sensor_id;sensor_type;location;lat;lon;timestamp;pressure;altitude;pressure_sealevel;temperature;humidity
64460;BME280;50828;53.756;21.140;2023-03-04T00:03:35;99087.77;;;1.05;70.75
64460;BME280;50828;53.756;21.140;2023-03-04T00:08:44;99077.45;;;1.10;70.70
64460;BME280;50828;53.756;21.140;2023-03-04T00:13:54;99073.90;;;1.15;70.45
64460;BME280;50828;53.756;21.140;2023-03-04T00:19:02;99068.08;;;1.19;70.46
64460;BME280;50828;53.756;21.140;2023-03-04T00:24:10;99065.41;;;1.23;70.51
64460;BME280;50828;53.756;21.140;2023-03-04T00:29:18;99060.88;;;1.24;70.24
64460;BME280;50828;53.756;21.140;2023-03-04T00:34:26;99047.69;;;1.25;70.40
64460;BME280;50828;53.756;21.140;2023-03-04T00:39:37;99031.48;;;1.29;70.46
64460;BME280;50828;53.756;21.140;2023-03-04T00:44:48;99019.14;;;1.30;70.35
64460;BME280;50828;53.756;21.140;2023-03-04T00:50:00;99010.36;;;1.35;70.22
64460;BME280;50828;53.756;21.140;2023-03-04T00:55:09;99003.20;;;1.37;70.14
64460;BME280;50828;53.756;21.140;2023-03-04T01:00:18;98994.83;;;1.40;70.29
64460;BME280;50828;53.756;21.140;2023-03-04T01:05:26;98991.49;;;1.41;70.10
64460;BME280;50828;53.756;21.140;2023-03-04T01:10:33;98980.67;;;1.45;70.27
64460;BME280;50828;53.756;21.140;2023-03-04T01:15:42;98971.59;;;1.47;70.30
64460;BME280;50828;53.756;21.140;2023-03-04T01:20:50;98962.36;;;1.49;70.19
64460;BME280;50828;53.756;21.140;2023-03-04T01:25:59;98953.02;;;1.48;70.08
64460;BME280;50828;53.756;21.140;2023-03-04T01:31:07;98941.33;;;1.50;70.21
64460;BME280;50828;53.756;21.140;2023-03-04T01:36:15;98923.27;;;1.52;70.32
64460;BME280;50828;53.756;21.140;2023-03-04T01:41:25;98918.32;;;1.55;70.16
64460;BME280;50828;53.756;21.140;2023-03-04T01:46:33;98910.82;;;1.57;70.26
64460;BME280;50828;53.756;21.140;2023-03-04T01:51:43;98903.31;;;1.59;70.14
64460;BME280;50828;53.756;21.140;2023-03-04T01:56:55;98887.31;;;1.60;70.27
64460;BME280;50828;53.756;21.140;2023-03-04T02:02:05;98875.46;;;1.62;70.23
64460;BME280;50828;53.756;21.140;2023-03-04T02:07:14;98868.10;;;1.65;70.20
64460;BME280;50828;53.756;21.140;2023-03-04T02:12:22;98861.80;;;1.68;70.15
64460;BME280;50828;53.756;21.140;2023-03-04T02:17:32;98856.58;;;1.69;70.08
64460;BME280;50828;53.756;21.140;2023-03-04T02:22:48;98858.12;;;1.69;70.07
64460;BME280;50828;53.756;21.140;2023-03-04T02:28:00;98850.50;;;1.68;70.28
64460;BME280;50828;53.756;21.140;2023-03-04T02:33:14;98842.01;;;1.68;70.39
64460;BME280;50828;53.756;21.140;2023-03-04T02:38:22;98829.17;;;1.67;70.29
64460;BME280;50828;53.756;21.140;2023-03-04T02:43:30;98818.89;;;1.70;70.34
64460;BME280;50828;53.756;21.140;2023-03-04T02:48:38;98815.89;;;1.71;70.35
64460;BME280;50828;53.756;21.140;2023-03-04T02:53:47;98809.77;;;1.73;70.27
64460;BME280;50828;53.756;21.140;2023-03-04T02:58:55;98802.23;;;1.76;70.30
64460;BME280;50828;53.756;21.140;2023-03-04T03:04:04;98799.17;;;1.80;70.23
64460;BME280;50828;53.756;21.140;2023-03-04T03:09:13;98800.36;;;1.81;70.13
64460;BME280;50828;53.756;21.140;2023-03-04T03:14:21;98792.92;;;1.80;70.35
64460;BME280;50828;53.756;21.140;2023-03-04T03:19:30;98791.69;;;1.81;70.29
64460;BME280;50828;53.756;21.140;2023-03-04T03:24:41;98790.80;;;1.82;70.13
64460;BME280;50828;53.756;21.140;2023-03-04T03:29:49;98789.05;;;1.82;70.28
64460;BME280;50828;53.756;21.140;2023-03-04T03:34:57;98785.91;;;1.83;70.21
64460;BME280;50828;53.756;21.140;2023-03-04T03:40:08;98785.65;;;1.87;70.34
64460;BME280;50828;53.756;21.140;2023-03-04T03:45:17;98775.69;;;1.89;70.19
64460;BME280;50828;53.756;21.140;2023-03-04T03:50:25;98772.97;;;1.93;70.23
64460;BME280;50828;53.756;21.140;2023-03-04T03:55:34;98770.29;;;1.96;70.18
64460;BME280;50828;53.756;21.140;2023-03-04T04:00:43;98766.52;;;2.00;70.11
64460;BME280;50828;53.756;21.140;2023-03-04T04:05:51;98767.62;;;2.05;70.30
64460;BME280;50828;53.756;21.140;2023-03-04T04:10:59;98766.89;;;2.07;70.25
64460;BME280;50828;53.756;21.140;2023-03-04T04:16:09;98765.38;;;2.11;70.26
64460;BME280;50828;53.756;21.140;2023-03-04T04:21:17;98759.57;;;2.13;70.12
64460;BME280;50828;53.756;21.140;2023-03-04T04:26:26;98761.29;;;2.15;70.28
64460;BME280;50828;53.756;21.140;2023-03-04T04:31:34;98761.90;;;2.17;70.31
64460;BME280;50828;53.756;21.140;2023-03-04T04:36:42;98740.18;;;2.18;70.32
64460;BME280;50828;53.756;21.140;2023-03-04T04:41:50;98739.09;;;2.20;70.33
64460;BME280;50828;53.756;21.140;2023-03-04T04:46:58;98732.77;;;2.23;70.17
64460;BME280;50828;53.756;21.140;2023-03-04T04:52:08;98743.19;;;2.23;70.32
64460;BME280;50828;53.756;21.140;2023-03-04T04:57:16;98743.88;;;2.22;70.34
64460;BME280;50828;53.756;21.140;2023-03-04T05:02:25;98740.25;;;2.22;70.35
64460;BME280;50828;53.756;21.140;2023-03-04T05:07:33;98738.33;;;2.22;70.26
64460;BME280;50828;53.756;21.140;2023-03-04T05:12:42;98732.36;;;2.24;70.43
64460;BME280;50828;53.756;21.140;2023-03-04T05:17:51;98737.04;;;2.25;70.33
64460;BME280;50828;53.756;21.140;2023-03-04T05:22:59;98741.92;;;2.24;70.39
64460;BME280;50828;53.756;21.140;2023-03-04T05:28:07;98743.59;;;2.26;70.37
64460;BME280;50828;53.756;21.140;2023-03-04T05:33:18;98745.35;;;2.25;70.10
64460;BME280;50828;53.756;21.140;2023-03-04T05:38:27;98744.80;;;2.26;70.06
64460;BME280;50828;53.756;21.140;2023-03-04T05:43:35;98738.02;;;2.26;70.01
64460;BME280;50828;53.756;21.140;2023-03-04T05:48:46;98731.04;;;2.27;70.00
64460;BME280;50828;53.756;21.140;2023-03-04T05:53:55;98728.27;;;2.27;69.74
64460;BME280;50828;53.756;21.140;2023-03-04T05:59:03;98732.34;;;2.25;69.60
64460;BME280;50828;53.756;21.140;2023-03-04T06:04:11;98737.71;;;2.25;69.75
64460;BME280;50828;53.756;21.140;2023-03-04T06:09:19;98731.49;;;2.25;69.81
64460;BME280;50828;53.756;21.140;2023-03-04T06:14:27;98730.71;;;2.27;69.73
64460;BME280;50828;53.756;21.140;2023-03-04T06:19:36;98734.09;;;2.30;69.69
64460;BME280;50828;53.756;21.140;2023-03-04T06:24:44;98730.75;;;2.32;69.67
64460;BME280;50828;53.756;21.140;2023-03-04T06:29:52;98735.15;;;2.35;69.67
64460;BME280;50828;53.756;21.140;2023-03-04T06:35:00;98732.25;;;2.40;69.81
64460;BME280;50828;53.756;21.140;2023-03-04T06:40:10;98729.23;;;2.43;69.85
64460;BME280;50828;53.756;21.140;2023-03-04T06:45:19;98736.91;;;2.47;69.58
64460;BME280;50828;53.756;21.140;2023-03-04T06:50:27;98735.95;;;2.51;69.62
64460;BME280;50828;53.756;21.140;2023-03-04T06:55:35;98735.16;;;2.54;69.65
64460;BME280;50828;53.756;21.140;2023-03-04T07:00:44;98736.28;;;2.57;69.57
64460;BME280;50828;53.756;21.140;2023-03-04T07:05:51;98737.06;;;2.60;69.67
64460;BME280;50828;53.756;21.140;2023-03-04T07:11:00;98732.93;;;2.64;69.50
64460;BME280;50828;53.756;21.140;2023-03-04T07:16:09;98732.96;;;2.69;69.33
64460;BME280;50828;53.756;21.140;2023-03-04T07:21:18;98731.42;;;2.74;69.42
64460;BME280;50828;53.756;21.140;2023-03-04T07:26:26;98737.56;;;2.78;69.11
64460;BME280;50828;53.756;21.140;2023-03-04T07:31:35;98746.87;;;2.81;69.17
64460;BME280;50828;53.756;21.140;2023-03-04T07:36:45;98743.80;;;2.85;68.89
64460;BME280;50828;53.756;21.140;2023-03-04T07:41:54;98741.33;;;2.86;68.49
64460;BME280;50828;53.756;21.140;2023-03-04T07:47:02;98742.88;;;2.86;68.53
64460;BME280;50828;53.756;21.140;2023-03-04T07:52:10;98740.39;;;2.88;68.08
64460;BME280;50828;53.756;21.140;2023-03-04T07:57:19;98738.92;;;2.90;68.00
64460;BME280;50828;53.756;21.140;2023-03-04T08:02:27;98735.23;;;2.92;67.83
64460;BME280;50828;53.756;21.140;2023-03-04T08:07:36;98736.90;;;2.94;67.56
64460;BME280;50828;53.756;21.140;2023-03-04T08:12:44;98738.10;;;2.94;67.53
64460;BME280;50828;53.756;21.140;2023-03-04T08:17:53;98739.84;;;2.94;67.34
64460;BME280;50828;53.756;21.140;2023-03-04T08:23:01;98748.04;;;2.94;66.96
64460;BME280;50828;53.756;21.140;2023-03-04T08:28:09;98744.85;;;2.95;66.49
64460;BME280;50828;53.756;21.140;2023-03-04T08:33:17;98744.98;;;2.97;66.43
64460;BME280;50828;53.756;21.140;2023-03-04T08:38:26;98744.32;;;3.01;65.28
64460;BME280;50828;53.756;21.140;2023-03-04T08:43:34;98739.95;;;3.02;64.21
64460;BME280;50828;53.756;21.140;2023-03-04T08:48:43;98742.60;;;3.00;63.73
64460;BME280;50828;53.756;21.140;2023-03-04T08:53:52;98744.70;;;3.00;63.75
64460;BME280;50828;53.756;21.140;2023-03-04T08:59:02;98751.09;;;3.02;63.41
64460;BME280;50828;53.756;21.140;2023-03-04T09:04:11;98747.92;;;3.03;63.31
64460;BME280;50828;53.756;21.140;2023-03-04T09:09:20;98751.37;;;3.04;62.84
64460;BME280;50828;53.756;21.140;2023-03-04T09:14:28;98757.73;;;3.06;62.06
64460;BME280;50828;53.756;21.140;2023-03-04T09:19:38;98754.77;;;3.06;61.47
64460;BME280;50828;53.756;21.140;2023-03-04T09:24:47;98751.84;;;3.05;61.34
64460;BME280;50828;53.756;21.140;2023-03-04T09:29:54;98740.67;;;3.06;61.04
64460;BME280;50828;53.756;21.140;2023-03-04T09:35:03;98734.83;;;3.09;60.57
64460;BME280;50828;53.756;21.140;2023-03-04T09:40:17;98734.12;;;3.10;59.78
64460;BME280;50828;53.756;21.140;2023-03-04T09:45:31;98739.52;;;3.10;59.42
64460;BME280;50828;53.756;21.140;2023-03-04T09:50:50;98750.67;;;3.09;58.97
64460;BME280;50828;53.756;21.140;2023-03-04T09:56:03;98758.02;;;3.08;59.16
64460;BME280;50828;53.756;21.140;2023-03-04T10:01:16;98764.01;;;3.05;59.59
64460;BME280;50828;53.756;21.140;2023-03-04T10:06:28;98768.15;;;3.02;59.42
64460;BME280;50828;53.756;21.140;2023-03-04T10:11:41;98767.45;;;2.96;59.14
64460;BME280;50828;53.756;21.140;2023-03-04T10:16:54;98760.91;;;2.88;59.42
64460;BME280;50828;53.756;21.140;2023-03-04T10:22:15;98752.36;;;2.83;59.43
64460;BME280;50828;53.756;21.140;2023-03-04T10:27:27;98744.81;;;2.80;59.83
64460;BME280;50828;53.756;21.140;2023-03-04T10:32:37;98740.17;;;2.78;59.83
64460;BME280;50828;53.756;21.140;2023-03-04T10:37:56;98728.45;;;2.74;59.59
64460;BME280;50828;53.756;21.140;2023-03-04T10:43:16;98720.95;;;2.75;59.69
64460;BME280;50828;53.756;21.140;2023-03-04T10:48:26;98714.19;;;2.74;59.61
64460;BME280;50828;53.756;21.140;2023-03-04T10:53:39;98704.48;;;2.74;58.52
64460;BME280;50828;53.756;21.140;2023-03-04T10:58:48;98706.95;;;2.72;57.33
64460;BME280;50828;53.756;21.140;2023-03-04T11:03:58;98710.95;;;2.72;56.46
64460;BME280;50828;53.756;21.140;2023-03-04T11:09:16;98708.07;;;2.70;56.11
64460;BME280;50828;53.756;21.140;2023-03-04T11:14:33;98716.38;;;2.71;56.08
64460;BME280;50828;53.756;21.140;2023-03-04T11:19:44;98725.45;;;2.77;56.36
64460;BME280;50828;53.756;21.140;2023-03-04T11:24:58;98726.88;;;2.81;56.87
64460;BME280;50828;53.756;21.140;2023-03-04T11:30:20;98726.44;;;2.84;56.70
64460;BME280;50828;53.756;21.140;2023-03-04T11:35:37;98717.10;;;2.82;56.23
64460;BME280;50828;53.756;21.140;2023-03-04T11:40:48;98715.80;;;2.85;56.16
64460;BME280;50828;53.756;21.140;2023-03-04T11:46:22;98718.16;;;2.87;56.28
64460;BME280;50828;53.756;21.140;2023-03-04T11:51:41;98724.73;;;2.89;55.53
64460;BME280;50828;53.756;21.140;2023-03-04T11:56:55;98711.23;;;2.86;55.08
64460;BME280;50828;53.756;21.140;2023-03-04T12:02:14;98710.04;;;2.80;54.46
64460;BME280;50828;53.756;21.140;2023-03-04T12:07:38;98724.42;;;2.70;53.79
64460;BME280;50828;53.756;21.140;2023-03-04T12:13:00;98733.75;;;2.66;53.15
64460;BME280;50828;53.756;21.140;2023-03-04T12:18:27;98752.19;;;2.54;53.05
64460;BME280;50828;53.756;21.140;2023-03-04T12:29:17;98787.23;;;2.44;55.29
64460;BME280;50828;53.756;21.140;2023-03-04T12:34:37;98782.30;;;2.34;55.24
64460;BME280;50828;53.756;21.140;2023-03-04T12:40:01;98811.05;;;2.24;55.94
64460;BME280;50828;53.756;21.140;2023-03-04T12:45:19;98826.80;;;2.13;56.78
64460;BME280;50828;53.756;21.140;2023-03-04T12:50:38;98840.71;;;1.99;57.31
64460;BME280;50828;53.756;21.140;2023-03-04T12:55:48;98843.29;;;1.80;58.28
64460;BME280;50828;53.756;21.140;2023-03-04T13:01:02;98838.42;;;1.59;58.87
64460;BME280;50828;53.756;21.140;2023-03-04T13:06:22;98830.02;;;1.39;59.35
64460;BME280;50828;53.756;21.140;2023-03-04T13:11:51;98837.35;;;1.22;59.42
64460;BME280;50828;53.756;21.140;2023-03-04T13:17:00;98871.14;;;1.07;59.38
64460;BME280;50828;53.756;21.140;2023-03-04T13:22:33;98884.73;;;0.96;59.11
64460;BME280;50828;53.756;21.140;2023-03-04T13:27:50;98881.34;;;0.83;58.51
64460;BME280;50828;53.756;21.140;2023-03-04T13:39:01;98898.11;;;0.60;58.77
64460;BME280;50828;53.756;21.140;2023-03-04T13:49:48;98930.35;;;0.49;57.87
64460;BME280;50828;53.756;21.140;2023-03-04T14:00:52;98923.14;;;0.36;57.45
64460;BME280;50828;53.756;21.140;2023-03-04T14:06:19;98936.96;;;0.27;57.34
64460;BME280;50828;53.756;21.140;2023-03-04T14:11:32;98958.73;;;0.20;58.07
64460;BME280;50828;53.756;21.140;2023-03-04T14:16:49;98950.31;;;0.16;59.22
64460;BME280;50828;53.756;21.140;2023-03-04T14:22:00;98948.89;;;0.08;59.55
64460;BME280;50828;53.756;21.140;2023-03-04T14:27:14;98944.33;;;0.02;58.86
64460;BME280;50828;53.756;21.140;2023-03-04T14:32:22;98939.96;;;-0.08;57.51
64460;BME280;50828;53.756;21.140;2023-03-04T14:37:36;98939.45;;;-0.19;56.22
64460;BME280;50828;53.756;21.140;2023-03-04T14:42:48;98976.61;;;-0.28;56.62
64460;BME280;50828;53.756;21.140;2023-03-04T14:48:04;98987.08;;;-0.34;57.88
64460;BME280;50828;53.756;21.140;2023-03-04T14:53:18;98981.99;;;-0.42;57.74
64460;BME280;50828;53.756;21.140;2023-03-04T14:58:28;98980.91;;;-0.51;57.01
64460;BME280;50828;53.756;21.140;2023-03-04T15:03:37;98991.21;;;-0.59;56.51
64460;BME280;50828;53.756;21.140;2023-03-04T15:08:47;98991.85;;;-0.67;56.28
64460;BME280;50828;53.756;21.140;2023-03-04T15:14:03;98982.25;;;-0.75;55.84
64460;BME280;50828;53.756;21.140;2023-03-04T15:19:25;98986.11;;;-0.80;55.67
64460;BME280;50828;53.756;21.140;2023-03-04T15:24:34;98985.67;;;-0.86;55.40
64460;BME280;50828;53.756;21.140;2023-03-04T15:29:44;98998.88;;;-0.91;55.32
64460;BME280;50828;53.756;21.140;2023-03-04T15:34:53;99007.04;;;-0.95;55.58
64460;BME280;50828;53.756;21.140;2023-03-04T15:40:02;99009.34;;;-1.01;55.68
64460;BME280;50828;53.756;21.140;2023-03-04T15:45:22;99013.20;;;-1.05;55.91
64460;BME280;50828;53.756;21.140;2023-03-04T15:50:31;99015.65;;;-1.08;56.03
64460;BME280;50828;53.756;21.140;2023-03-04T15:55:39;99022.77;;;-1.12;56.16
64460;BME280;50828;53.756;21.140;2023-03-04T16:00:50;99029.71;;;-1.15;56.21
64460;BME280;50828;53.756;21.140;2023-03-04T16:06:00;99034.41;;;-1.19;56.27
64460;BME280;50828;53.756;21.140;2023-03-04T16:11:11;99043.94;;;-1.20;56.39
64460;BME280;50828;53.756;21.140;2023-03-04T16:16:22;99039.27;;;-1.21;56.66
64460;BME280;50828;53.756;21.140;2023-03-04T16:21:29;99041.55;;;-1.24;56.99
64460;BME280;50828;53.756;21.140;2023-03-04T16:26:37;99039.17;;;-1.28;57.25
64460;BME280;50828;53.756;21.140;2023-03-04T16:31:45;99042.84;;;-1.32;57.32
64460;BME280;50828;53.756;21.140;2023-03-04T16:36:54;99052.39;;;-1.39;57.53
64460;BME280;50828;53.756;21.140;2023-03-04T16:42:04;99051.08;;;-1.45;57.64
64460;BME280;50828;53.756;21.140;2023-03-04T16:47:16;99052.00;;;-1.54;57.61
64460;BME280;50828;53.756;21.140;2023-03-04T16:52:31;99054.66;;;-1.61;57.83
64460;BME280;50828;53.756;21.140;2023-03-04T16:57:41;99056.60;;;-1.69;57.96
64460;BME280;50828;53.756;21.140;2023-03-04T17:02:54;99062.69;;;-1.74;58.02
64460;BME280;50828;53.756;21.140;2023-03-04T17:08:03;99062.20;;;-1.78;58.03
64460;BME280;50828;53.756;21.140;2023-03-04T17:13:11;99064.83;;;-1.82;57.86
64460;BME280;50828;53.756;21.140;2023-03-04T17:18:18;99063.99;;;-1.87;57.80
64460;BME280;50828;53.756;21.140;2023-03-04T17:23:26;99065.58;;;-1.92;57.58
64460;BME280;50828;53.756;21.140;2023-03-04T17:28:34;99067.50;;;-1.96;57.76
64460;BME280;50828;53.756;21.140;2023-03-04T17:33:42;99062.70;;;-2.02;57.62
64460;BME280;50828;53.756;21.140;2023-03-04T17:38:51;99064.45;;;-2.06;57.26
64460;BME280;50828;53.756;21.140;2023-03-04T17:44:00;99062.06;;;-2.09;57.22
64460;BME280;50828;53.756;21.140;2023-03-04T17:49:11;99065.52;;;-2.13;57.28
64460;BME280;50828;53.756;21.140;2023-03-04T17:54:20;99069.48;;;-2.13;57.19
64460;BME280;50828;53.756;21.140;2023-03-04T17:59:28;99067.42;;;-2.13;57.02
64460;BME280;50828;53.756;21.140;2023-03-04T18:04:36;99075.34;;;-2.10;57.24
64460;BME280;50828;53.756;21.140;2023-03-04T18:09:45;99072.40;;;-2.09;57.36
64460;BME280;50828;53.756;21.140;2023-03-04T18:14:52;99075.34;;;-2.08;57.31
64460;BME280;50828;53.756;21.140;2023-03-04T18:20:01;99077.23;;;-2.06;57.20
64460;BME280;50828;53.756;21.140;2023-03-04T18:25:10;99077.73;;;-2.03;57.39
64460;BME280;50828;53.756;21.140;2023-03-04T18:30:19;99075.80;;;-2.00;57.61
64460;BME280;50828;53.756;21.140;2023-03-04T18:35:33;99082.17;;;-1.97;57.53
64460;BME280;50828;53.756;21.140;2023-03-04T18:40:43;99086.98;;;-1.93;57.54
64460;BME280;50828;53.756;21.140;2023-03-04T18:46:04;99086.44;;;-1.90;57.41
64460;BME280;50828;53.756;21.140;2023-03-04T18:51:13;99083.65;;;-1.85;57.55
64460;BME280;50828;53.756;21.140;2023-03-04T18:56:25;99078.77;;;-1.81;57.47
64460;BME280;50828;53.756;21.140;2023-03-04T19:01:42;99083.25;;;-1.76;57.54
64460;BME280;50828;53.756;21.140;2023-03-04T19:06:51;99087.36;;;-1.72;57.76
64460;BME280;50828;53.756;21.140;2023-03-04T19:11:59;99084.91;;;-1.67;57.56
64460;BME280;50828;53.756;21.140;2023-03-04T19:17:08;99084.02;;;-1.62;57.48
64460;BME280;50828;53.756;21.140;2023-03-04T19:22:15;99080.38;;;-1.60;57.22
64460;BME280;50828;53.756;21.140;2023-03-04T19:27:24;99081.38;;;-1.56;57.37
64460;BME280;50828;53.756;21.140;2023-03-04T19:32:33;99088.59;;;-1.51;57.55
64460;BME280;50828;53.756;21.140;2023-03-04T19:37:42;99084.77;;;-1.46;57.60
64460;BME280;50828;53.756;21.140;2023-03-04T19:42:51;99087.83;;;-1.41;57.41
64460;BME280;50828;53.756;21.140;2023-03-04T19:47:59;99091.41;;;-1.36;57.19
64460;BME280;50828;53.756;21.140;2023-03-04T19:53:10;99091.90;;;-1.32;57.00
64460;BME280;50828;53.756;21.140;2023-03-04T19:58:23;99095.15;;;-1.29;56.87
64460;BME280;50828;53.756;21.140;2023-03-04T20:03:32;99093.05;;;-1.25;57.10
64460;BME280;50828;53.756;21.140;2023-03-04T20:08:40;99095.41;;;-1.19;57.11
64460;BME280;50828;53.756;21.140;2023-03-04T20:13:48;99101.41;;;-1.14;56.85
64460;BME280;50828;53.756;21.140;2023-03-04T20:18:57;99102.77;;;-1.10;56.57
64460;BME280;50828;53.756;21.140;2023-03-04T20:24:06;99101.36;;;-1.07;56.53
64460;BME280;50828;53.756;21.140;2023-03-04T20:29:15;99100.13;;;-1.06;56.64
64460;BME280;50828;53.756;21.140;2023-03-04T20:34:24;99099.23;;;-1.02;56.54
64460;BME280;50828;53.756;21.140;2023-03-04T20:39:32;99099.52;;;-0.97;56.46
64460;BME280;50828;53.756;21.140;2023-03-04T20:44:41;99104.70;;;-0.95;56.34
64460;BME280;50828;53.756;21.140;2023-03-04T20:49:50;99105.90;;;-0.94;56.29
64460;BME280;50828;53.756;21.140;2023-03-04T20:54:58;99103.80;;;-0.91;56.34
64460;BME280;50828;53.756;21.140;2023-03-04T21:00:11;99106.36;;;-0.87;56.32
64460;BME280;50828;53.756;21.140;2023-03-04T21:05:19;99101.50;;;-0.86;56.13
64460;BME280;50828;53.756;21.140;2023-03-04T21:10:28;99099.94;;;-0.86;56.04
64460;BME280;50828;53.756;21.140;2023-03-04T21:15:42;99098.73;;;-0.87;55.97
64460;BME280;50828;53.756;21.140;2023-03-04T21:20:54;99100.81;;;-0.87;56.19
64460;BME280;50828;53.756;21.140;2023-03-04T21:26:03;99102.02;;;-0.87;56.14
64460;BME280;50828;53.756;21.140;2023-03-04T21:31:19;99098.40;;;-0.88;56.18
64460;BME280;50828;53.756;21.140;2023-03-04T21:36:28;99101.16;;;-0.87;55.97
64460;BME280;50828;53.756;21.140;2023-03-04T21:41:37;99101.52;;;-0.89;56.18
64460;BME280;50828;53.756;21.140;2023-03-04T21:46:45;99105.19;;;-0.91;56.07
64460;BME280;50828;53.756;21.140;2023-03-04T21:51:54;99106.23;;;-0.93;56.09
64460;BME280;50828;53.756;21.140;2023-03-04T21:57:02;99107.11;;;-0.94;56.14
64460;BME280;50828;53.756;21.140;2023-03-04T22:02:14;99108.48;;;-0.95;56.24
64460;BME280;50828;53.756;21.140;2023-03-04T22:07:23;99107.13;;;-0.95;56.36
64460;BME280;50828;53.756;21.140;2023-03-04T22:12:31;99104.36;;;-0.96;56.33
64460;BME280;50828;53.756;21.140;2023-03-04T22:17:40;99102.12;;;-0.97;56.48
64460;BME280;50828;53.756;21.140;2023-03-04T22:22:51;99100.06;;;-0.97;56.41
64460;BME280;50828;53.756;21.140;2023-03-04T22:27:59;99101.43;;;-0.98;56.31
64460;BME280;50828;53.756;21.140;2023-03-04T22:33:08;99099.88;;;-0.98;56.31
64460;BME280;50828;53.756;21.140;2023-03-04T22:38:17;99100.60;;;-1.00;55.94
64460;BME280;50828;53.756;21.140;2023-03-04T22:43:26;99098.72;;;-1.02;55.76
64460;BME280;50828;53.756;21.140;2023-03-04T22:48:34;99089.77;;;-1.07;55.63
64460;BME280;50828;53.756;21.140;2023-03-04T22:53:42;99097.94;;;-1.11;55.40
64460;BME280;50828;53.756;21.140;2023-03-04T22:58:50;99095.21;;;-1.16;55.18
64460;BME280;50828;53.756;21.140;2023-03-04T23:03:57;99088.55;;;-1.24;54.84
64460;BME280;50828;53.756;21.140;2023-03-04T23:09:05;99093.77;;;-1.29;54.68
64460;BME280;50828;53.756;21.140;2023-03-04T23:14:13;99090.53;;;-1.35;54.64
64460;BME280;50828;53.756;21.140;2023-03-04T23:19:21;99088.17;;;-1.42;54.56
64460;BME280;50828;53.756;21.140;2023-03-04T23:24:30;99087.36;;;-1.47;54.58
64460;BME280;50828;53.756;21.140;2023-03-04T23:29:39;99086.54;;;-1.52;54.51
64460;BME280;50828;53.756;21.140;2023-03-04T23:34:49;99087.25;;;-1.55;54.47
64460;BME280;50828;53.756;21.140;2023-03-04T23:39:59;99089.17;;;-1.59;54.37
64460;BME280;50828;53.756;21.140;2023-03-04T23:45:09;99084.37;;;-1.63;54.30
64460;BME280;50828;53.756;21.140;2023-03-04T23:50:18;99067.20;;;-1.76;54.09
64460;BME280;50828;53.756;21.140;2023-03-04T23:55:28;99076.15;;;-1.73;54.21
